Time;durP1;ratioP1;P1;durP2;ratioP2;P2;SDS_P1;SDS_P2;PMS_P1;PMS_P2;Temp;Humidity;BMP_temperature;BMP_pressure;BME280_temperature;BME280_humidity;BME280_pressure;Samples;Min_cycle;Max_cycle;Signal;HPM_P1;HPM_P2
2022/09/08 00:02:11;;;;;;;;;3.00;1.00;;;;;18.24;70.69;100613.00;4974540;28;45263;-46
2022/09/08 00:04:36;;;;;;;;;4.50;1.00;;;;;18.20;70.03;100615.28;4974752;28;45350;-46
2022/09/08 00:07:02;;;;;;;;;0.00;0.00;;;;;18.18;70.52;100613.81;4974337;28;46321;-46
2022/09/08 00:09:30;;;;;;;;;2.00;1.00;;;;;18.18;70.24;100628.09;4974472;28;45350;-45
2022/09/08 00:11:57;;;;;;;;;1.75;0.00;;;;;18.17;70.84;100612.16;4974263;28;45307;-45
2022/09/08 00:14:23;;;;;;;;;2.00;1.50;;;;;18.15;70.52;100619.59;4974306;28;45332;-46
2022/09/08 00:16:49;;;;;;;;;0.75;0.75;;;;;18.10;70.27;100612.13;4973805;28;45481;-43
2022/09/08 00:19:15;;;;;;;;;2.50;0.75;;;;;18.15;70.84;100617.72;4976179;28;45239;-45
2022/09/08 00:21:41;;;;;;;;;0.00;0.00;;;;;18.15;70.35;100625.81;4977075;28;45505;-46
2022/09/08 00:24:07;;;;;;;;;2.00;0.00;;;;;18.14;69.59;100617.94;4978546;28;45317;-43
2022/09/08 00:26:32;;;;;;;;;1.25;1.00;;;;;18.17;71.05;100631.00;4977052;28;45996;-44
2022/09/08 00:28:57;;;;;;;;;0.25;0.25;;;;;18.15;70.08;100633.88;4977030;28;45326;-57
2022/09/08 00:31:23;;;;;;;;;1.00;1.00;;;;;18.19;70.85;100637.84;4977197;28;45667;-44
2022/09/08 00:33:48;;;;;;;;;0.00;0.00;;;;;18.23;70.74;100632.88;4977549;28;45378;-45
2022/09/08 00:36:15;;;;;;;;;0.00;0.00;;;;;18.24;70.26;100623.78;4977128;28;46324;-46
2022/09/08 00:38:42;;;;;;;;;1.00;1.00;;;;;18.23;70.76;100615.91;4976914;28;45340;-42
2022/09/08 00:41:12;;;;;;;;;1.50;1.00;;;;;18.23;70.99;100621.28;4977270;28;45326;-44
2022/09/08 00:43:43;;;;;;;;;1.00;1.00;;;;;18.17;70.57;100613.00;4977212;28;45702;-44
2022/09/08 00:46:19;;;;;;;;;5.75;1.25;;;;;18.12;70.88;100622.72;4976572;28;45336;-45
2022/09/08 00:48:52;;;;;;;;;0.00;0.00;;;;;18.05;70.80;100625.34;4976653;28;45498;-44
2022/09/08 00:51:19;;;;;;;;;1.75;1.75;;;;;17.95;70.50;100606.88;4976812;28;45422;-45
2022/09/08 00:53:47;;;;;;;;;2.00;1.00;;;;;17.99;71.25;100619.91;4977029;28;45275;-47
2022/09/08 00:56:13;;;;;;;;;0.50;0.50;;;;;17.95;70.93;100616.81;4976688;28;46214;-49
2022/09/08 00:58:39;;;;;;;;;1.00;1.00;;;;;17.90;70.58;100619.25;4976656;28;45440;-51
2022/09/08 01:01:06;;;;;;;;;2.50;2.00;;;;;17.79;71.91;100615.25;4976895;28;45328;-44
2022/09/08 01:03:33;;;;;;;;;1.50;1.50;;;;;17.76;71.93;100625.56;4977020;28;45583;-44
2022/09/08 01:15:06;;;;;;;;;2.00;1.00;;;;;17.68;71.10;100605.81;4977102;28;45349;-43
2022/09/08 01:17:31;;;;;;;;;0.75;0.75;;;;;17.85;71.27;100627.09;4991419;28;47775;-45
2022/09/08 01:19:59;;;;;;;;;2.00;2.00;;;;;17.83;71.71;100629.16;4976328;28;45375;-44
2022/09/08 01:22:33;;;;;;;;;2.00;2.00;;;;;17.83;71.33;100629.97;4976534;28;45260;-45
2022/09/08 01:25:27;;;;;;;;;3.00;3.00;;;;;17.79;71.63;100628.72;4976619;28;45563;-42
2022/09/08 01:28:04;;;;;;;;;0.50;0.50;;;;;17.76;71.08;100625.56;4976347;28;45534;-44
2022/09/08 01:30:31;;;;;;;;;1.25;1.00;;;;;17.74;72.09;100628.47;4975529;28;45348;-44
2022/09/08 01:32:57;;;;;;;;;1.00;1.00;;;;;17.70;71.85;100635.25;4976473;28;45309;-44
2022/09/08 01:35:31;;;;;;;;;2.50;1.00;;;;;17.66;72.41;100632.09;4976478;28;45465;-43
2022/09/08 01:37:57;;;;;;;;;3.00;1.00;;;;;17.69;72.20;100631.69;4975921;28;46397;-44
2022/09/08 01:40:23;;;;;;;;;1.50;1.50;;;;;17.73;72.09;100644.75;4976165;28;45346;-44
2022/09/08 01:42:48;;;;;;;;;2.25;2.00;;;;;17.77;71.69;100640.69;4976441;28;45290;-46
2022/09/08 01:45:13;;;;;;;;;1.75;1.75;;;;;17.80;71.86;100645.69;4976378;28;45393;-45
2022/09/08 01:47:39;;;;;;;;;3.00;1.00;;;;;17.81;71.78;100644.66;4976152;28;45207;-43
2022/09/08 01:50:04;;;;;;;;;1.00;1.00;;;;;17.82;71.29;100646.31;4976190;28;45500;-47
2022/09/08 01:52:30;;;;;;;;;0.75;0.75;;;;;17.82;71.69;100643.59;4976289;28;45405;-44
2022/09/08 01:54:55;;;;;;;;;3.25;1.50;;;;;17.83;71.62;100656.06;4976511;28;45310;-47
2022/09/08 01:57:20;;;;;;;;;1.00;1.00;;;;;17.85;71.59;100657.50;4976165;28;45276;-44
2022/09/08 01:59:46;;;;;;;;;0.25;0.25;;;;;17.88;71.93;100657.13;4976004;28;45172;-46
2022/09/08 02:02:11;;;;;;;;;1.00;1.00;;;;;17.87;71.56;100660.03;4977932;28;45458;-45
2022/09/08 02:04:36;;;;;;;;;5.00;2.00;;;;;17.92;71.44;100660.25;4976247;28;45334;-46
2022/09/08 02:07:02;;;;;;;;;1.00;1.00;;;;;17.93;71.40;100656.53;4975749;28;46024;-47
2022/09/08 02:09:27;;;;;;;;;2.75;1.00;;;;;17.89;70.94;100660.66;4975668;28;45481;-46
2022/09/08 02:11:52;;;;;;;;;2.00;1.25;;;;;17.82;71.17;100654.38;4975920;28;45458;-46
2022/09/08 02:14:18;;;;;;;;;3.25;1.00;;;;;17.70;71.11;100640.63;4975906;28;45422;-45
2022/09/08 02:16:43;;;;;;;;;3.00;1.00;;;;;17.81;71.94;100653.53;4975717;28;46294;-44
2022/09/08 02:19:10;;;;;;;;;3.75;2.00;;;;;17.79;72.14;100652.94;4975633;28;45439;-47
2022/09/08 02:21:35;;;;;;;;;1.00;1.00;;;;;17.78;71.67;100661.19;4977313;28;45343;-45
2022/09/08 02:24:01;;;;;;;;;2.00;1.75;;;;;17.78;71.56;100664.72;4975866;28;45397;-44
2022/09/08 02:26:28;;;;;;;;;1.50;1.50;;;;;17.80;71.74;100656.44;4975580;28;45391;-46
2022/09/08 02:28:54;;;;;;;;;1.75;0.75;;;;;17.75;71.67;100646.28;4975755;28;45356;-43
2022/09/08 02:31:21;;;;;;;;;2.75;1.50;;;;;17.78;72.26;100645.88;4990710;28;45396;-44
2022/09/08 02:33:47;;;;;;;;;3.00;1.25;;;;;17.81;71.47;100650.03;4975837;28;45370;-46
2022/09/08 02:36:12;;;;;;;;;2.00;1.25;;;;;17.80;71.65;100649.19;4975471;28;46880;-47
2022/09/08 02:38:38;;;;;;;;;2.00;1.00;;;;;17.78;72.05;100651.28;4975090;28;45699;-45
2022/09/08 02:41:04;;;;;;;;;1.00;1.00;;;;;17.72;72.11;100641.25;4975304;28;45467;-43
2022/09/08 02:43:30;;;;;;;;;3.25;1.00;;;;;17.64;72.36;100641.38;4974853;28;45417;-45
2022/09/08 02:45:55;;;;;;;;;2.00;2.00;;;;;17.59;72.47;100647.34;4975363;28;45475;-44
2022/09/08 02:48:20;;;;;;;;;2.00;2.00;;;;;17.52;72.58;100642.94;4975337;28;45408;-48
2022/09/08 02:50:46;;;;;;;;;3.00;2.00;;;;;17.47;72.28;100643.53;4975521;28;45290;-45
2022/09/08 02:53:11;;;;;;;;;1.50;1.50;;;;;17.39;72.43;100625.66;4975397;28;45512;-43
2022/09/08 02:55:41;;;;;;;;;1.25;1.00;;;;;17.36;73.74;100627.91;4975057;28;46208;-45
2022/09/08 02:58:07;;;;;;;;;3.25;2.00;;;;;17.19;73.44;100608.53;4975460;28;45334;-45
2022/09/08 03:00:38;;;;;;;;;3.00;1.00;;;;;17.26;73.65;100620.19;4975324;28;45386;-45
2022/09/08 03:03:03;;;;;;;;;2.00;2.00;;;;;17.19;74.26;100616.59;4975449;28;45505;-44
2022/09/08 03:05:30;;;;;;;;;1.25;1.25;;;;;17.18;73.56;100617.63;4975151;28;45489;-45
2022/09/08 03:07:57;;;;;;;;;3.75;1.50;;;;;17.18;74.39;100612.25;4974925;28;45168;-48
2022/09/08 03:10:23;;;;;;;;;2.75;1.00;;;;;17.21;74.90;100611.88;4975345;28;45446;-47
2022/09/08 03:12:51;;;;;;;;;2.75;1.00;;;;;17.28;74.06;100611.94;4975321;28;45421;-47
2022/09/08 03:15:16;;;;;;;;;2.25;2.25;;;;;17.29;74.10;100613.59;4975162;28;47206;-44
2022/09/08 03:17:41;;;;;;;;;2.00;2.00;;;;;17.24;74.27;100608.81;4975497;28;45243;-49
2022/09/08 03:20:09;;;;;;;;;2.00;1.75;;;;;17.18;74.23;100612.25;4975275;28;45408;-47
2022/09/08 03:22:34;;;;;;;;;3.25;2.75;;;;;17.11;74.57;100614.06;4975202;28;45560;-49
2022/09/08 03:24:59;;;;;;;;;1.75;1.75;;;;;17.06;73.62;100603.88;4974683;28;46602;-45
2022/09/08 03:27:26;;;;;;;;;2.50;2.00;;;;;17.04;74.87;100603.25;4974919;28;45334;-44
2022/09/08 03:29:53;;;;;;;;;3.75;1.50;;;;;16.99;73.73;100594.94;4975210;28;44728;-44
2022/09/08 03:32:18;;;;;;;;;1.75;1.75;;;;;16.94;74.56;100603.56;4975084;28;45516;-51
2022/09/08 03:34:43;;;;;;;;;1.00;1.00;;;;;16.93;74.15;100593.81;4974648;28;46149;-45
2022/09/08 03:37:09;;;;;;;;;5.25;2.00;;;;;16.95;75.37;100604.41;4974649;28;45349;-46
2022/09/08 03:39:34;;;;;;;;;3.00;2.00;;;;;16.92;74.62;100592.16;4974548;28;45421;-45
2022/09/08 03:42:00;;;;;;;;;2.50;2.50;;;;;16.95;75.32;100596.34;4974752;28;45246;-46
2022/09/08 03:44:25;;;;;;;;;3.00;1.00;;;;;16.95;75.05;100601.72;4974407;28;46910;-53
2022/09/08 03:46:51;;;;;;;;;4.00;3.00;;;;;17.00;75.08;100599.28;4973602;28;45404;-50
2022/09/08 03:49:16;;;;;;;;;5.75;3.25;;;;;17.05;75.36;100604.06;4974843;28;45939;-46
2022/09/08 03:51:41;;;;;;;;;4.75;4.50;;;;;17.10;73.94;100607.84;4975008;28;44792;-45
2022/09/08 03:56:53;;;;;;;;;4.50;4.00;;;;;17.09;74.09;100595.44;4980965;28;45448;-44
2022/09/08 03:59:18;;;;;;;;;7.25;3.00;;;;;17.12;74.51;100597.75;4995978;28;45353;-44
2022/09/08 04:01:44;;;;;;;;;4.00;3.75;;;;;17.14;74.06;100598.34;4980911;28;45357;-43
2022/09/08 04:04:09;;;;;;;;;4.00;4.00;;;;;17.15;74.38;100597.38;4980784;28;46852;-46
2022/09/08 04:06:35;;;;;;;;;7.75;4.75;;;;;17.11;72.92;100595.25;4980552;28;45157;-45
2022/09/08 04:09:00;;;;;;;;;5.00;4.25;;;;;17.09;74.64;100592.75;4980811;28;45302;-45
2022/09/08 04:11:26;;;;;;;;;5.50;4.00;;;;;17.13;74.83;100595.88;4980967;28;45255;-44
2022/09/08 04:13:51;;;;;;;;;3.50;3.50;;;;;17.13;74.67;100607.47;4980838;28;45928;-44
2022/09/08 04:16:18;;;;;;;;;3.00;3.00;;;;;17.17;74.16;100605.22;4980630;28;45159;-43
2022/09/08 04:18:44;;;;;;;;;6.67;4.33;;;;;17.19;74.83;100598.63;4980508;28;45340;-45
2022/09/08 04:21:10;;;;;;;;;5.25;3.50;;;;;17.19;73.44;100603.16;4980813;28;45514;-44
2022/09/08 04:23:37;;;;;;;;;6.00;6.00;;;;;17.10;74.32;100594.41;4980515;28;45386;-45
2022/09/08 04:26:06;;;;;;;;;5.50;4.50;;;;;17.16;74.83;100599.00;4980349;28;45251;-44
2022/09/08 04:28:33;;;;;;;;;11.75;5.00;;;;;17.15;75.00;100589.28;4980700;28;45365;-48
2022/09/08 04:31:05;;;;;;;;;8.00;4.50;;;;;17.17;74.53;100583.72;4980520;28;45523;-45
2022/09/08 04:33:31;;;;;;;;;7.00;5.00;;;;;17.26;74.48;100579.03;4980191;28;46261;-46
2022/09/08 04:35:56;;;;;;;;;3.75;3.75;;;;;17.33;74.66;100598.75;4980310;28;45315;-47
2022/09/08 04:38:21;;;;;;;;;4.00;4.00;;;;;17.38;74.32;100591.75;4980221;28;45204;-45
2022/09/08 04:40:47;;;;;;;;;5.25;4.00;;;;;17.44;74.33;100592.81;4980693;28;45280;-46
2022/09/08 04:43:12;;;;;;;;;6.25;4.25;;;;;17.37;73.84;100584.72;4979985;28;45378;-44
2022/09/08 04:45:37;;;;;;;;;5.00;4.25;;;;;17.42;72.85;100592.19;4980221;28;45591;-44
2022/09/08 04:48:03;;;;;;;;;4.25;3.50;;;;;17.38;73.30;100586.38;4980361;28;45410;-46
2022/09/08 04:50:28;;;;;;;;;7.00;4.00;;;;;17.36;74.06;100585.75;4980294;28;45436;-44
2022/09/08 04:52:54;;;;;;;;;5.75;4.00;;;;;17.38;73.91;100591.75;4978891;28;45322;-44
2022/09/08 04:55:19;;;;;;;;;4.00;4.00;;;;;17.34;73.27;100573.50;4979970;28;45404;-43
2022/09/08 04:57:45;;;;;;;;;6.00;4.50;;;;;17.35;73.26;100585.94;4980176;28;45579;-43
2022/09/08 05:00:12;;;;;;;;;6.75;5.75;;;;;17.25;74.21;100580.88;4980713;28;45298;-45
2022/09/08 05:02:38;;;;;;;;;3.50;3.00;;;;;17.26;73.57;100581.72;4979790;28;46192;-44
2022/09/08 05:05:03;;;;;;;;;4.75;2.00;;;;;17.22;74.31;100583.97;4977420;28;45242;-44
2022/09/08 05:07:29;;;;;;;;;4.75;3.00;;;;;17.22;74.29;100575.91;4976866;28;45171;-44
2022/09/08 05:09:54;;;;;;;;;3.50;2.00;;;;;17.29;73.30;100581.34;4976593;28;45331;-44
2022/09/08 05:12:19;;;;;;;;;4.50;3.00;;;;;17.25;73.85;100590.81;4976635;28;45339;-46
2022/09/08 05:14:45;;;;;;;;;5.50;3.25;;;;;17.16;73.84;100579.38;4976583;28;45150;-43
2022/09/08 05:17:10;;;;;;;;;6.50;3.75;;;;;17.28;73.93;100596.66;4975462;28;45178;-45
2022/09/08 05:19:35;;;;;;;;;3.75;2.75;;;;;17.31;73.98;100593.53;4976766;28;45220;-44
2022/09/08 05:22:01;;;;;;;;;5.75;3.00;;;;;17.29;74.26;100586.72;4976252;28;45260;-44
2022/09/08 05:24:26;;;;;;;;;2.25;2.25;;;;;17.34;74.39;100590.47;4976377;28;45322;-43
2022/09/08 05:26:51;;;;;;;;;3.75;2.75;;;;;17.37;73.95;100589.25;4976323;28;45406;-42
2022/09/08 05:29:17;;;;;;;;;2.50;2.50;;;;;17.38;74.38;100593.59;4976893;28;45556;-46
2022/09/08 05:31:42;;;;;;;;;5.25;3.00;;;;;17.41;74.00;100604.81;4976124;28;47246;-46
2022/09/08 05:34:08;;;;;;;;;3.75;3.75;;;;;17.39;74.03;100601.47;4976156;28;45365;-46
2022/09/08 05:36:35;;;;;;;;;5.00;4.00;;;;;17.46;74.33;100602.38;4976447;28;45389;-46
2022/09/08 05:39:03;;;;;;;;;4.25;3.00;;;;;17.46;73.76;100598.84;4975867;28;45341;-44
2022/09/08 05:41:30;;;;;;;;;6.25;3.75;;;;;17.12;73.97;100549.34;4976091;28;46367;-43
2022/09/08 05:43:56;;;;;;;;;4.75;4.75;;;;;17.46;74.11;100598.84;4976400;28;45437;-44
2022/09/08 05:46:25;;;;;;;;;4.00;3.00;;;;;17.53;73.61;100607.81;4976352;28;45222;-43
2022/09/08 05:48:52;;;;;;;;;7.25;3.00;;;;;17.53;73.33;100605.13;4976903;28;45335;-57
2022/09/08 05:51:18;;;;;;;;;5.00;3.25;;;;;17.53;73.80;100601.56;4976148;28;46989;-46
2022/09/08 05:53:43;;;;;;;;;4.00;4.00;;;;;17.47;73.15;100587.06;4976504;28;45239;-56
2022/09/08 05:56:10;;;;;;;;;3.75;2.75;;;;;17.60;73.55;100608.66;4976730;28;45370;-44
2022/09/08 05:58:36;;;;;;;;;7.25;5.00;;;;;17.64;73.56;100609.09;4975023;28;45260;-55
2022/09/08 06:01:13;;;;;;;;;4.50;2.25;;;;;17.63;73.29;100608.28;4975931;28;46313;-44
2022/09/08 06:03:38;;;;;;;;;4.00;3.25;;;;;17.64;73.45;100601.88;4975948;28;45439;-45
2022/09/08 06:06:09;;;;;;;;;7.00;4.00;;;;;17.68;73.37;100619.28;4976135;28;45339;-53
2022/09/08 06:08:36;;;;;;;;;6.00;4.50;;;;;17.66;73.54;100609.75;4976256;28;45252;-50
2022/09/08 06:11:02;;;;;;;;;7.50;4.25;;;;;17.59;73.17;100596.25;4975656;28;47552;-51
2022/09/08 06:13:30;;;;;;;;;5.50;5.25;;;;;17.70;72.97;100616.41;4975571;28;45455;-54
2022/09/08 06:16:02;;;;;;;;;4.00;3.00;;;;;17.63;72.31;100602.91;4975919;28;45436;-47
2022/09/08 06:18:27;;;;;;;;;4.75;3.00;;;;;17.69;72.81;100612.03;4975996;28;45592;-47
2022/09/08 06:20:53;;;;;;;;;5.50;4.00;;;;;17.74;73.08;100611.44;4975820;28;45526;-43
2022/09/08 06:23:18;;;;;;;;;6.00;3.00;;;;;17.80;72.43;100618.78;4975953;28;45442;-46
2022/09/08 06:25:45;;;;;;;;;4.50;3.00;;;;;17.85;72.77;100616.31;4975822;28;45370;-44
2022/09/08 06:28:19;;;;;;;;;5.25;4.00;;;;;17.91;71.92;100615.53;4976008;28;45262;-44
2022/09/08 06:30:50;;;;;;;;;3.50;2.75;;;;;17.92;72.25;100609.97;4975629;28;46214;-43
2022/09/08 06:33:23;;;;;;;;;6.25;4.50;;;;;18.06;71.92;100616.25;4975518;28;45270;-43
2022/09/08 06:36:08;;;;;;;;;4.75;4.75;;;;;18.17;71.37;100602.22;4975738;28;45245;-48
2022/09/08 06:38:33;;;;;;;;;7.25;5.00;;;;;18.28;70.90;100608.06;4975473;28;45179;-45
2022/09/08 06:41:09;;;;;;;;;8.50;8.00;;;;;18.45;70.47;100614.75;4975335;28;47036;-45
2022/09/08 06:43:48;;;;;;;;;11.25;7.00;;;;;18.54;70.11;100613.56;4975445;28;45226;-44
2022/09/08 06:46:26;;;;;;;;;9.00;6.00;;;;;18.61;69.64;100611.72;4975448;28;45450;-46
2022/09/08 06:48:55;;;;;;;;;5.25;3.75;;;;;18.80;69.17;100601.22;4975687;28;45416;-43
2022/09/08 06:51:25;;;;;;;;;5.00;5.00;;;;;18.98;69.06;100597.94;4975380;28;46435;-45
2022/09/08 06:54:05;;;;;;;;;6.25;4.00;;;;;19.06;68.67;100595.88;4975437;28;45444;-43
2022/09/08 06:56:56;;;;;;;;;4.00;4.00;;;;;19.07;68.43;100596.69;4975484;28;45227;-43
2022/09/08 07:00:06;;;;;;;;;7.25;5.00;;;;;19.10;68.37;100604.38;4977125;28;45678;-44
2022/09/08 07:02:40;;;;;;;;;4.75;3.75;;;;;19.00;67.85;100593.16;5015282;28;45483;-52
2022/09/08 07:05:47;;;;;;;;;4.25;4.00;;;;;19.03;67.69;100608.94;4998741;28;45438;-44
2022/09/08 07:08:30;;;;;;;;;6.50;4.75;;;;;19.11;67.36;100611.44;4937305;28;45404;-46
2022/09/08 07:10:59;;;;;;;;;7.00;4.75;;;;;19.12;67.14;100605.81;4937237;28;45342;-54
2022/09/08 07:13:42;;;;;;;;;4.00;4.00;;;;;19.28;67.02;100615.38;4936943;28;46139;-45
2022/09/08 07:16:26;;;;;;;;;3.00;3.00;;;;;19.47;66.73;100611.03;4936707;28;45563;-54
2022/09/08 07:19:04;;;;;;;;;4.00;3.00;;;;;19.56;65.72;100606.25;4936872;28;45215;-51
2022/09/08 07:21:38;;;;;;;;;4.75;4.75;;;;;19.59;65.16;100611.22;4936846;28;45377;-44
2022/09/08 07:24:10;;;;;;;;;4.00;3.00;;;;;19.51;66.16;100612.28;4936693;28;46079;-54
2022/09/08 07:26:47;;;;;;;;;3.75;3.75;;;;;19.35;66.38;100610.84;4936140;28;45349;-46
2022/09/08 07:29:21;;;;;;;;;5.50;3.50;;;;;19.22;67.00;100600.03;4935949;28;45362;-54
2022/09/08 07:31:50;;;;;;;;;4.50;4.00;;;;;19.20;67.05;100604.81;4936816;28;45494;-49
2022/09/08 07:34:20;;;;;;;;;4.75;4.00;;;;;19.15;66.79;100604.59;4936544;28;45361;-45
2022/09/08 07:36:53;;;;;;;;;3.00;3.00;;;;;19.09;67.24;100602.75;4971589;28;45323;-44
2022/09/08 07:39:25;;;;;;;;;3.50;2.50;;;;;19.07;67.06;100607.50;4994926;28;45554;-55
2022/09/08 07:41:58;;;;;;;;;6.00;5.00;;;;;19.05;67.30;100610.41;4987130;28;45496;-55
2022/09/08 07:44:25;;;;;;;;;4.25;3.00;;;;;19.04;67.49;100600.63;4974640;28;46203;-44
2022/09/08 07:47:02;;;;;;;;;5.20;4.00;;;;;19.16;67.12;100595.47;4974476;28;45407;-45
2022/09/08 07:49:46;;;;;;;;;6.00;4.50;;;;;19.34;67.03;100608.31;4974826;28;45454;-48
2022/09/08 07:52:30;;;;;;;;;5.25;3.00;;;;;19.54;65.41;100605.63;4975066;28;45276;-52
2022/09/08 07:55:21;;;;;;;;;5.50;3.00;;;;;19.72;66.02;100608.56;4974783;28;46392;-52
2022/09/08 07:57:54;;;;;;;;;8.25;4.25;;;;;19.66;65.81;100615.59;4974957;28;45462;-46
2022/09/08 08:00:23;;;;;;;;;5.75;3.75;;;;;19.57;65.90;100610.63;4974731;28;45321;-51
2022/09/08 08:03:09;;;;;;;;;3.50;3.00;;;;;19.44;66.16;100614.16;4989949;28;45494;-45
2022/09/08 08:05:45;;;;;;;;;6.50;4.50;;;;;19.35;66.12;100613.53;4975709;28;46287;-47
2022/09/08 08:08:48;;;;;;;;;3.60;3.00;;;;;19.36;66.06;100614.34;4974301;28;45456;-53
2022/09/08 08:11:18;;;;;;;;;6.75;3.00;;;;;19.28;65.78;100609.16;5014359;28;45474;-49
2022/09/08 08:13:51;;;;;;;;;5.25;2.25;;;;;19.29;66.14;100617.03;5014878;28;45288;-45
2022/09/08 08:16:34;;;;;;;;;3.50;3.25;;;;;19.40;65.66;100615.59;5014427;28;45356;-48
2022/09/08 08:19:05;;;;;;;;;5.20;3.00;;;;;19.51;65.49;100623.09;5014432;28;45436;-44
2022/09/08 08:21:46;;;;;;;;;5.50;4.00;;;;;19.41;65.13;100628.03;5014537;28;45519;-44
2022/09/08 08:24:17;;;;;;;;;6.50;4.00;;;;;19.32;65.26;100622.03;4998008;28;45498;-45
2022/09/08 08:27:01;;;;;;;;;3.00;3.00;;;;;19.23;65.56;100617.06;5014155;28;46263;-54
2022/09/08 08:29:29;;;;;;;;;10.50;3.50;;;;;19.25;65.67;100631.16;5014230;28;45368;-46
2022/09/08 08:32:05;;;;;;;;;5.00;2.50;;;;;19.25;65.24;100631.97;5014260;28;45479;-44
2022/09/08 08:34:36;;;;;;;;;3.50;3.00;;;;;19.26;65.18;100622.03;5014435;28;45455;-44
2022/09/08 08:37:05;;;;;;;;;6.25;3.00;;;;;19.47;65.11;100616.44;5014042;28;46345;-44
2022/09/08 08:39:35;;;;;;;;;5.00;4.00;;;;;20.39;62.77;100618.13;5013948;28;45408;-47
2022/09/08 08:42:29;;;;;;;;;2.00;2.00;;;;;20.63;61.95;100621.16;5017470;28;45340;-45
2022/09/08 08:45:32;;;;;;;;;1.75;1.75;;;;;20.51;61.75;100622.88;5017793;28;45591;-47
2022/09/08 08:48:16;;;;;;;;;3.00;2.25;;;;;20.31;62.52;100634.59;4989555;28;46305;-45
2022/09/08 08:50:44;;;;;;;;;4.40;2.60;;;;;20.09;63.02;100641.28;4976808;28;45523;-46
2022/09/08 08:53:38;;;;;;;;;1.80;1.40;;;;;19.92;62.69;100643.59;4976986;28;45402;-43
2022/09/08 08:56:18;;;;;;;;;5.25;2.00;;;;;19.89;62.88;100636.78;4985245;28;45313;-46
2022/09/08 08:58:54;;;;;;;;;2.00;2.00;;;;;19.98;63.20;100642.78;4976810;28;45418;-46
2022/09/08 09:01:38;;;;;;;;;2.00;2.00;;;;;19.98;62.73;100642.78;4975109;28;45459;-48
2022/09/08 09:04:41;;;;;;;;;8.20;4.60;;;;;19.96;62.63;100647.53;4976704;28;45455;-44
2022/09/08 09:07:45;;;;;;;;;3.50;3.00;;;;;19.88;63.32;100650.47;4976977;28;45365;-48
2022/09/08 09:10:19;;;;;;;;;5.00;4.00;;;;;19.68;63.27;100648.63;4976621;28;46395;-46
2022/09/08 09:12:47;;;;;;;;;5.40;2.80;;;;;19.62;63.57;100649.44;4976219;28;45412;-50
2022/09/08 09:15:30;;;;;;;;;5.00;4.00;;;;;19.62;63.54;100649.44;4976833;28;45264;-44
2022/09/08 09:18:20;;;;;;;;;3.00;3.00;;;;;19.63;63.46;100651.09;4976887;28;45263;-48
2022/09/08 09:21:04;;;;;;;;;6.75;3.25;;;;;19.60;63.82;100647.97;4976453;28;46318;-47
2022/09/08 09:23:35;;;;;;;;;4.00;4.00;;;;;19.56;63.92;100647.56;4976469;28;45346;-46
2022/09/08 09:26:02;;;;;;;;;3.25;3.00;;;;;19.64;64.25;100651.97;4976185;28;45305;-43
2022/09/08 09:28:39;;;;;;;;;4.75;3.00;;;;;19.64;64.07;100660.88;4976556;28;45386;-47
2022/09/08 09:31:13;;;;;;;;;4.00;2.75;;;;;19.61;63.88;100664.00;4976420;28;46327;-44
2022/09/08 09:33:55;;;;;;;;;3.60;3.40;;;;;19.69;63.77;100650.28;4976506;28;45437;-46
2022/09/08 09:36:41;;;;;;;;;5.00;3.00;;;;;20.07;63.19;100655.00;4975095;28;45403;-46
2022/09/08 09:39:12;;;;;;;;;5.75;4.00;;;;;20.21;63.12;100650.38;4976363;28;45215;-47
2022/09/08 09:41:58;;;;;;;;;2.50;2.00;;;;;20.47;62.34;100652.16;4975879;28;46536;-44
2022/09/08 09:44:53;;;;;;;;;4.40;4.20;;;;;20.85;61.25;100649.53;4975989;28;45415;-43
2022/09/08 09:47:56;;;;;;;;;2.00;2.00;;;;;20.75;61.19;100637.53;4976024;28;45365;-45
2022/09/08 09:50:43;;;;;;;;;4.00;3.00;;;;;22.12;59.73;100641.22;4976279;28;45299;-44
2022/09/08 09:53:17;;;;;;;;;5.20;2.40;;;;;22.45;56.89;100631.91;4975879;28;46025;-44
2022/09/08 09:56:06;;;;;;;;;1.40;1.40;;;;;22.34;56.55;100620.81;4975962;28;45386;-44
2022/09/08 09:59:12;;;;;;;;;6.80;3.60;;;;;22.02;57.80;100624.69;4975934;28;45373;-45
2022/09/08 10:02:16;;;;;;;;;6.00;3.00;;;;;21.55;58.57;100633.25;4976280;28;45256;-46
2022/09/08 10:05:06;;;;;;;;;4.00;2.60;;;;;21.31;58.77;100642.16;4990681;28;45996;-44
2022/09/08 10:08:09;;;;;;;;;7.00;4.00;;;;;21.82;58.69;100633.00;4992828;28;45402;-46
2022/09/08 10:10:46;;;;;;;;;5.60;3.60;;;;;21.62;58.21;100628.63;4975446;28;45237;-44
2022/09/08 10:13:23;;;;;;;;;7.50;2.25;;;;;21.81;58.13;100625.94;4975439;28;45476;-43
2022/09/08 10:16:27;;;;;;;;;6.80;3.80;;;;;22.65;57.29;100627.06;4975588;28;46109;-46
2022/09/08 10:19:29;;;;;;;;;5.80;4.00;;;;;25.20;51.99;100615.72;5015587;28;45401;-44
2022/09/08 10:22:13;;;;;;;;;6.60;3.00;;;;;26.29;48.66;100606.97;5015911;28;45468;-45
2022/09/08 10:24:51;;;;;;;;;6.20;5.40;;;;;26.79;46.51;100595.03;5015358;28;45573;-45
2022/09/08 10:27:45;;;;;;;;;3.60;3.60;;;;;26.40;47.42;100594.31;5015207;28;45466;-48
2022/09/08 10:30:32;;;;;;;;;4.40;2.60;;;;;25.84;50.08;100588.97;5015582;28;45487;-50
2022/09/08 10:33:35;;;;;;;;;4.40;2.80;;;;;25.49;50.07;100592.78;5015525;28;45358;-46
2022/09/08 10:36:03;;;;;;;;;3.60;1.80;;;;;26.58;46.68;100578.44;5015677;28;45376;-49
2022/09/08 10:38:31;;;;;;;;;5.20;2.60;;;;;25.91;48.33;100569.69;5014854;28;45378;-47
2022/09/08 10:40:56;;;;;;;;;7.80;5.80;;;;;25.18;48.20;100579.78;5015664;28;45230;-48
2022/09/08 10:43:37;;;;;;;;;4.00;2.00;;;;;24.73;49.04;100578.69;5014793;28;45535;-45
2022/09/08 10:46:33;;;;;;;;;2.60;2.20;;;;;25.94;48.49;100580.94;5015496;28;45514;-46
2022/09/08 10:49:49;;;;;;;;;2.20;1.00;;;;;26.66;45.83;100579.06;5015403;28;45446;-47
2022/09/08 10:52:25;;;;;;;;;2.00;0.60;;;;;27.97;43.43;100563.97;4937319;28;45458;-49
2022/09/08 10:55:00;;;;;;;;;2.00;2.00;;;;;27.56;43.13;100571.94;4938176;28;45466;-46
2022/09/08 10:57:53;;;;;;;;;2.00;1.60;;;;;30.08;42.17;100567.38;4995942;28;45496;-54
2022/09/08 11:00:20;;;;;;;;;2.80;1.00;;;;;31.88;35.97;100562.22;4995543;28;46370;-47
2022/09/08 11:03:23;;;;;;;;;5.40;1.00;;;;;35.03;35.77;100556.81;4994626;28;45414;-44
2022/09/08 11:06:08;;;;;;;;;2.60;1.80;;;;;37.61;28.60;100549.22;4995556;28;45439;-44
2022/09/08 11:08:42;;;;;;;;;3.00;1.00;;;;;37.48;31.32;100560.56;4995176;28;45275;-53
2022/09/08 11:11:38;;;;;;;;;2.00;2.00;;;;;36.53;32.36;100553.16;4995295;28;45546;-45
2022/09/08 11:14:30;;;;;;;;;2.00;1.20;;;;;34.69;34.91;100563.69;4995297;28;45418;-43
2022/09/08 11:17:37;;;;;;;;;1.80;0.80;;;;;34.05;32.53;100557.34;4995413;28;45546;-42
2022/09/08 11:20:28;;;;;;;;;2.20;1.20;;;;;32.44;34.88;100554.06;4917745;28;45566;-49
2022/09/08 11:23:06;;;;;;;;;1.80;1.00;;;;;32.54;33.51;100553.09;4879390;29;46416;-44
2022/09/08 11:26:09;;;;;;;;;2.40;1.00;;;;;33.40;32.11;100572.09;4890629;28;45448;-45
2022/09/08 11:28:57;;;;;;;;;1.60;1.60;;;;;34.09;30.47;100569.41;4936627;28;45466;-45
2022/09/08 11:31:41;;;;;;;;;1.60;1.00;;;;;32.64;32.39;100565.91;4937158;28;45450;-42
2022/09/08 11:34:31;;;;;;;;;2.00;2.00;;;;;31.15;34.61;100575.00;4936449;28;45614;-51
2022/09/08 11:37:15;;;;;;;;;1.80;1.20;;;;;29.92;35.78;100577.63;4936456;28;45507;-42
2022/09/08 11:39:55;;;;;;;;;2.40;1.00;;;;;29.16;37.12;100577.69;4936630;28;45387;-45
2022/09/08 11:42:45;;;;;;;;;1.60;1.60;;;;;28.53;38.71;100577.91;4936724;28;45538;-47
2022/09/08 11:45:32;;;;;;;;;1.40;1.00;;;;;29.01;38.37;100575.78;4936412;28;45510;-42
2022/09/08 11:48:28;;;;;;;;;0.00;0.00;;;;;32.31;33.85;100568.53;4936347;28;45510;-45
2022/09/08 11:51:09;;;;;;;;;1.00;1.00;;;;;34.42;31.70;100576.41;4936533;28;45462;-44
2022/09/08 11:53:54;;;;;;;;;2.60;1.00;;;;;34.41;29.51;100563.72;4936578;28;45511;-44
2022/09/08 11:56:38;;;;;;;;;0.00;0.00;;;;;35.07;29.18;100566.91;4902477;28;45733;-44
2022/09/08 11:59:10;;;;;;;;;0.80;0.20;;;;;35.88;28.12;100561.13;4922666;28;45380;-45
2022/09/08 12:02:04;;;;;;;;;1.80;0.60;;;;;36.62;27.61;100552.03;4974625;28;45488;-43
2022/09/08 12:05:02;;;;;;;;;3.80;1.00;;;;;38.06;25.52;100540.34;4974620;28;45381;-46
2022/09/08 12:07:46;;;;;;;;;1.80;1.00;;;;;39.30;23.34;100550.91;4974169;28;45463;-43